createdAt,value
2019-05-03T00:02:36.587Z,29.50
2019-05-03T00:05:32.464Z,29.50
2019-05-03T00:08:05.918Z,29.50
2019-05-03T00:10:37.453Z,29.60
2019-05-03T00:13:09.377Z,29.60
2019-05-03T00:16:02.588Z,29.60
2019-05-03T00:18:36.691Z,29.60
2019-05-03T00:21:08.437Z,29.70
2019-05-03T00:23:41.782Z,29.70
2019-05-03T00:26:13.333Z,29.80
2019-05-03T00:28:46.073Z,29.80
2019-05-03T00:31:18.813Z,29.80
2019-05-03T00:33:51.962Z,29.90
2019-05-03T00:36:27.594Z,29.90
2019-05-03T00:39:05.357Z,30.00
2019-05-03T00:41:37.899Z,30.00
2019-05-03T00:44:11.477Z,30.10
2019-05-03T00:46:46.385Z,30.20
2019-05-03T00:49:18.823Z,30.20
2019-05-03T00:51:51.707Z,30.30
2019-05-03T00:54:24.634Z,30.30
2019-05-03T00:56:58.143Z,30.40
2019-05-03T00:59:29.818Z,30.40
2019-05-03T01:02:02.715Z,30.50
2019-05-03T01:04:35.569Z,30.60
2019-05-03T01:07:08.827Z,30.60
2019-05-03T01:09:42.299Z,30.70
2019-05-03T01:12:14.173Z,30.80
2019-05-03T01:14:47.811Z,30.90
2019-05-03T01:17:23.849Z,30.90
2019-05-03T01:19:56.637Z,31.00
2019-05-03T01:22:27.950Z,31.10
2019-05-03T01:25:02.880Z,31.10
2019-05-03T01:27:34.951Z,31.20
2019-05-03T01:30:09.316Z,31.30
2019-05-03T01:32:41.887Z,31.30
2019-05-03T01:35:14.603Z,31.40
2019-05-03T01:37:47.347Z,31.50
2019-05-03T01:40:22.011Z,31.50
2019-05-03T01:42:56.734Z,31.60
2019-05-03T01:45:31.871Z,31.60
2019-05-03T01:48:06.149Z,31.70
2019-05-03T01:50:42.491Z,31.80
2019-05-03T01:53:17.384Z,31.80
2019-05-03T01:56:08.911Z,31.90
2019-05-03T01:58:41.724Z,32.00
2019-05-03T02:01:23.407Z,32.10
2019-05-03T02:04:14.385Z,32.20
2019-05-03T02:06:51.785Z,32.30
2019-05-03T02:09:23.572Z,32.40
2019-05-03T02:11:56.195Z,32.50
2019-05-03T02:14:28.851Z,32.60
2019-05-03T02:17:01.866Z,32.70
2019-05-03T02:19:34.416Z,32.80
2019-05-03T02:22:07.001Z,32.90
2019-05-03T02:24:39.745Z,32.90
2019-05-03T02:27:12.586Z,33.00
2019-05-03T02:29:45.290Z,33.00
2019-05-03T02:32:18.483Z,33.00
2019-05-03T02:34:53.405Z,33.10
2019-05-03T02:37:24.851Z,33.20
2019-05-03T02:40:03.901Z,33.20
2019-05-03T02:42:35.591Z,33.40
2019-05-03T02:45:12.034Z,33.40
2019-05-03T02:47:47.775Z,33.50
2019-05-03T02:50:21.676Z,33.60
2019-05-03T02:52:55.162Z,33.70
2019-05-03T02:55:28.928Z,33.90
2019-05-03T02:58:01.444Z,34.10
2019-05-03T03:01:00.309Z,34.10
2019-05-03T03:03:36.564Z,34.30
2019-05-03T03:06:10.147Z,34.30
2019-05-03T03:08:41.626Z,34.40
2019-05-03T03:11:16.657Z,34.50
2019-05-03T03:13:49.049Z,34.60
2019-05-03T03:16:25.039Z,34.70
2019-05-03T03:18:59.871Z,34.90
2019-05-03T03:21:36.253Z,35.00
2019-05-03T03:24:11.090Z,35.10
2019-05-03T03:26:47.312Z,35.30
2019-05-03T03:29:20.535Z,35.40
2019-05-03T03:32:11.844Z,35.50
2019-05-03T03:34:56.702Z,35.60
2019-05-03T03:37:26.497Z,35.80
2019-05-03T03:39:58.171Z,35.80
2019-05-03T03:42:35.810Z,35.80
2019-05-03T03:45:07.993Z,35.80
2019-05-03T03:47:41.755Z,35.90
2019-05-03T03:50:15.163Z,35.90
2019-05-03T03:52:48.008Z,36.00
2019-05-03T03:55:21.365Z,36.20
2019-05-03T03:57:55.727Z,36.30
2019-05-03T04:00:27.884Z,36.30
2019-05-03T04:02:59.731Z,36.30
2019-05-03T04:05:37.995Z,36.30
2019-05-03T04:08:10.835Z,36.30
2019-05-03T04:10:46.402Z,36.30
2019-05-03T04:13:22.080Z,36.30
2019-05-03T04:15:58.438Z,36.30
2019-05-03T04:18:47.475Z,36.40
2019-05-03T04:21:20.125Z,36.40
2019-05-03T04:23:56.092Z,36.50
2019-05-03T04:26:32.272Z,36.60
2019-05-03T04:29:05.313Z,36.70
2019-05-03T04:31:40.399Z,36.90
2019-05-03T04:34:16.200Z,37.00
2019-05-03T04:36:50.727Z,37.10
2019-05-03T04:39:22.033Z,37.10
2019-05-03T04:42:08.263Z,37.20
2019-05-03T04:44:41.059Z,37.30
2019-05-03T04:47:18.743Z,37.50
2019-05-03T04:49:56.210Z,37.60
2019-05-03T04:52:29.468Z,37.70
2019-05-03T04:55:02.380Z,37.70
2019-05-03T04:57:40.684Z,37.70
2019-05-03T05:00:11.697Z,37.70
2019-05-03T05:02:45.742Z,37.80
2019-05-03T05:05:18.783Z,37.80
2019-05-03T05:07:51.312Z,37.90
2019-05-03T05:10:26.170Z,38.00
2019-05-03T05:12:58.075Z,38.10
2019-05-03T05:15:30.554Z,38.20
2019-05-03T05:18:07.895Z,38.40
2019-05-03T05:20:42.516Z,38.50
2019-05-03T05:23:14.754Z,38.60
2019-05-03T05:25:48.033Z,38.80
2019-05-03T05:28:38.895Z,39.00
2019-05-03T05:31:11.456Z,39.10
2019-05-03T05:33:48.069Z,39.30
2019-05-03T05:36:20.930Z,39.40
2019-05-03T05:38:52.564Z,39.50
2019-05-03T05:41:25.439Z,39.60
2019-05-03T05:44:01.870Z,39.70
2019-05-03T05:46:37.551Z,39.80
2019-05-03T05:49:14.578Z,39.90
2019-05-03T05:51:47.897Z,39.90
2019-05-03T05:54:24.552Z,40.00
2019-05-03T05:57:00.002Z,40.10
2019-05-03T05:59:35.043Z,40.30
2019-05-03T06:02:11.194Z,40.40
2019-05-03T06:04:45.402Z,40.50
2019-05-03T06:07:36.000Z,40.40
2019-05-03T06:10:10.487Z,40.20
2019-05-03T06:12:51.051Z,40.00
2019-05-03T06:15:25.035Z,39.90
2019-05-03T06:18:05.766Z,39.70
2019-05-03T06:20:42.840Z,39.60
2019-05-03T06:23:17.937Z,39.50
2019-05-03T06:25:51.231Z,39.50
2019-05-03T06:28:27.570Z,39.60
2019-05-03T06:31:07.493Z,39.80
2019-05-03T06:33:40.554Z,40.00
2019-05-03T06:36:15.386Z,40.00
2019-05-03T06:38:54.759Z,40.20
2019-05-03T06:41:29.636Z,40.20
2019-05-03T06:44:01.324Z,40.30
2019-05-03T06:46:55.226Z,40.40
2019-05-03T06:49:26.539Z,40.40
2019-05-03T06:51:59.196Z,40.40
2019-05-03T06:54:36.289Z,40.50
2019-05-03T06:57:11.520Z,40.50
2019-05-03T07:00:06.109Z,40.50
2019-05-03T07:02:40.222Z,40.50
2019-05-03T07:05:30.736Z,40.60
2019-05-03T07:08:25.321Z,40.70
2019-05-03T07:11:01.369Z,40.70
2019-05-03T07:13:34.553Z,40.70
2019-05-03T07:16:07.714Z,40.50
2019-05-03T07:18:40.169Z,40.50
2019-05-03T07:21:15.130Z,40.50
2019-05-03T07:23:49.583Z,40.50
2019-05-03T07:26:22.601Z,40.60
2019-05-03T07:28:58.140Z,40.70
2019-05-03T07:31:32.711Z,40.70
2019-05-03T07:34:06.988Z,40.60
2019-05-03T07:36:40.468Z,40.50
2019-05-03T07:39:14.575Z,40.50
2019-05-03T07:41:50.074Z,40.70
2019-05-03T07:44:23.038Z,40.70
2019-05-03T07:46:55.888Z,40.80
2019-05-03T07:49:35.376Z,40.70
2019-05-03T07:52:11.608Z,40.70
2019-05-03T07:54:44.976Z,40.70
2019-05-03T07:57:35.819Z,40.80
2019-05-03T08:00:09.931Z,40.80
2019-05-03T08:02:42.439Z,40.80
2019-05-03T08:05:15.544Z,40.80
2019-05-03T08:07:48.638Z,40.80
2019-05-03T08:10:21.614Z,40.90
2019-05-03T08:12:56.093Z,40.90
2019-05-03T08:15:28.510Z,40.90
2019-05-03T08:18:00.166Z,41.00
2019-05-03T08:20:34.914Z,41.00
2019-05-03T08:23:06.973Z,41.00
2019-05-03T08:25:39.653Z,41.00
2019-05-03T08:28:14.402Z,41.00
2019-05-03T08:31:04.614Z,41.00
2019-05-03T08:33:38.254Z,41.00
2019-05-03T08:36:10.904Z,41.00
2019-05-03T08:38:45.075Z,41.00
2019-05-03T08:41:20.468Z,41.00
2019-05-03T08:43:55.449Z,41.00
2019-05-03T08:46:31.234Z,40.90
2019-05-03T08:49:05.412Z,40.80
2019-05-03T08:51:40.129Z,40.80
2019-05-03T08:54:15.147Z,40.70
2019-05-03T08:56:48.357Z,40.60
2019-05-03T08:59:31.537Z,40.50
2019-05-03T09:01:56.116Z,40.40
2019-05-03T09:04:37.399Z,40.30
2019-05-03T09:07:06.083Z,40.30
2019-05-03T09:09:45.977Z,40.30
2019-05-03T09:12:16.604Z,40.30
2019-05-03T09:14:48.587Z,40.20
2019-05-03T09:17:24.653Z,40.10
2019-05-03T09:19:57.233Z,40.00
2019-05-03T09:22:30.394Z,39.90
2019-05-03T09:25:02.032Z,39.80
2019-05-03T09:27:34.398Z,39.70
2019-05-03T09:30:08.984Z,39.70
2019-05-03T09:32:40.381Z,39.70
2019-05-03T09:35:27.176Z,39.70
2019-05-03T09:37:46.810Z,39.70
2019-05-03T09:40:21.338Z,39.60
2019-05-03T09:42:56.931Z,39.60
2019-05-03T09:45:28.692Z,39.60
2019-05-03T09:48:01.248Z,39.50
2019-05-03T09:50:35.648Z,39.50
2019-05-03T09:53:09.463Z,39.40
2019-05-03T09:55:44.851Z,39.30
2019-05-03T09:58:16.610Z,39.20
2019-05-03T10:00:50.623Z,39.10
2019-05-03T10:03:23.356Z,39.00
